Time;durP1;ratioP1;P1;durP2;ratioP2;P2;SDS_P1;SDS_P2;PMS_P1;PMS_P2;Temp;Humidity;BMP_temperature;BMP_pressure;BME280_temperature;BME280_humidity;BME280_pressure;Samples;Min_cycle;Max_cycle;Signal;HPM_P1;HPM_P2
2022/10/31 00:00:21;;;;;;;93.32;49.55;;;10.50;99.90;;;;;;10393936;28;20049;-80
2022/10/31 00:05:21;;;;;;;86.15;48.05;;;10.50;99.90;;;;;;10397706;28;20048;-78
2022/10/31 00:10:22;;;;;;;91.55;44.80;;;10.40;99.90;;;;;;10399678;28;20029;-79
2022/10/31 00:15:22;;;;;;;107.37;54.77;;;10.30;99.90;;;;;;10390663;28;20409;-78
2022/10/31 00:20:23;;;;;;;102.10;49.53;;;10.20;99.90;;;;;;10400487;28;20048;-78
2022/10/31 00:25:23;;;;;;;86.73;47.63;;;10.20;99.90;;;;;;10391233;28;20390;-79
2022/10/31 00:30:24;;;;;;;103.53;48.70;;;10.10;99.90;;;;;;10394684;28;20026;-78
2022/10/31 00:35:25;;;;;;;96.40;46.45;;;10.10;99.90;;;;;;10383999;28;20388;-81
2022/10/31 00:40:25;;;;;;;90.18;43.30;;;10.10;99.90;;;;;;10387650;28;20524;-78
2022/10/31 00:45:26;;;;;;;79.57;41.75;;;10.10;99.90;;;;;;10371377;28;20382;-78
2022/10/31 00:50:27;;;;;;;84.03;42.30;;;10.10;99.90;;;;;;10383234;28;20481;-80
2022/10/31 00:55:27;;;;;;;72.87;38.87;;;10.00;99.90;;;;;;10369110;28;20095;-78
2022/10/31 01:00:28;;;;;;;94.70;44.87;;;10.00;99.90;;;;;;10395897;28;20045;-82
2022/10/31 01:05:28;;;;;;;77.90;40.33;;;9.90;99.90;;;;;;10378867;28;20049;-81
2022/10/31 01:10:29;;;;;;;102.05;45.95;;;9.90;99.90;;;;;;10380174;28;20032;-80
2022/10/31 01:15:29;;;;;;;99.93;45.00;;;9.90;99.90;;;;;;10384491;28;20924;-79
2022/10/31 01:20:30;;;;;;;116.13;50.23;;;9.90;99.90;;;;;;10384904;28;20112;-78
2022/10/31 01:25:30;;;;;;;91.53;43.17;;;9.90;99.90;;;;;;10373071;28;20116;-78
2022/10/31 01:30:31;;;;;;;102.37;47.10;;;10.00;99.90;;;;;;10387622;28;20088;-78
2022/10/31 01:35:32;;;;;;;114.73;49.93;;;10.10;99.90;;;;;;10377906;28;20042;-80
2022/10/31 01:40:32;;;;;;;126.25;51.50;;;10.00;99.90;;;;;;10374813;28;20064;-82
2022/10/31 01:45:33;;;;;;;111.63;49.70;;;10.00;99.90;;;;;;10383156;28;20048;-79
2022/10/31 01:50:38;;;;;;;113.57;46.97;;;10.00;99.90;;;;;;10380331;28;20017;-78
2022/10/31 01:55:41;;;;;;;66.27;37.43;;;10.00;99.90;;;;;;10393752;28;20039;-82
2022/10/31 02:00:45;;;;;;;109.63;43.20;;;9.90;99.90;;;;;;10392903;28;20108;-79
2022/10/31 02:05:46;;;;;;;133.87;46.47;;;9.90;99.90;;;;;;10380506;28;20053;-80
2022/10/31 02:10:47;;;;;;;154.20;51.47;;;9.80;99.90;;;;;;10388943;28;20022;-79
2022/10/31 02:15:51;;;;;;;115.30;52.57;;;9.70;99.90;;;;;;10374306;28;20104;-81
2022/10/31 02:21:10;;;;;;;103.37;48.80;;;9.60;99.90;;;;;;10384502;28;20545;-81
2022/10/31 02:26:19;;;;;;;117.90;49.70;;;9.60;99.90;;;;;;10384377;28;20036;-78
2022/10/31 02:31:45;;;;;;;74.90;37.27;;;9.70;99.90;;;;;;10399143;28;20033;-79
2022/10/31 02:36:56;;;;;;;79.30;36.80;;;9.70;99.90;;;;;;10398249;28;20051;-79
2022/10/31 02:42:00;;;;;;;82.50;37.03;;;9.70;99.90;;;;;;10390940;28;20026;-78
2022/10/31 02:47:11;;;;;;;88.80;41.37;;;9.60;99.90;;;;;;10393313;28;20030;-79
2022/10/31 02:52:18;;;;;;;103.27;44.07;;;9.50;99.90;;;;;;10386824;28;20156;-82
2022/10/31 02:57:34;;;;;;;102.23;48.27;;;9.40;99.90;;;;;;10388632;28;20037;-79
2022/10/31 03:02:47;;;;;;;100.83;41.87;;;9.40;99.90;;;;;;10388026;28;20026;-80
2022/10/31 03:07:54;;;;;;;123.50;47.30;;;9.40;99.90;;;;;;10382022;28;20057;-78
2022/10/31 03:13:18;;;;;;;115.47;45.37;;;9.30;99.90;;;;;;10387157;28;20109;-78
2022/10/31 03:18:37;;;;;;;132.30;44.27;;;9.30;99.90;;;;;;10387938;28;20073;-81
2022/10/31 03:23:40;;;;;;;75.27;38.07;;;9.20;99.90;;;;;;10387877;28;20033;-78
2022/10/31 03:28:52;;;;;;;172.80;50.90;;;9.20;99.90;;;;;;10378191;28;20036;-78
2022/10/31 03:33:56;;;;;;;199.60;57.50;;;9.20;99.90;;;;;;10381813;28;20131;-78
2022/10/31 03:38:58;;;;;;;126.20;51.73;;;9.10;99.90;;;;;;10375867;28;20037;-77
2022/10/31 03:44:04;;;;;;;98.00;46.23;;;9.10;99.90;;;;;;10374691;28;20044;-79
2022/10/31 03:49:05;;;;;;;106.00;45.97;;;9.10;99.90;;;;;;10385264;28;20448;-81
2022/10/31 03:54:12;;;;;;;109.67;47.87;;;9.10;99.90;;;;;;10389949;28;20036;-80
2022/10/31 03:59:32;;;;;;;166.87;62.70;;;9.10;99.90;;;;;;10381646;28;20029;-82
2022/10/31 04:04:34;;;;;;;162.83;68.03;;;9.10;99.90;;;;;;10378867;28;20073;-79
2022/10/31 04:09:37;;;;;;;114.37;56.57;;;9.10;99.90;;;;;;10387209;28;20060;-78
2022/10/31 04:14:40;;;;;;;160.70;61.97;;;9.10;99.90;;;;;;10392019;28;20029;-78
2022/10/31 04:19:40;;;;;;;159.93;59.67;;;9.00;99.90;;;;;;10397570;28;20037;-78
2022/10/31 04:24:41;;;;;;;150.73;55.17;;;9.00;99.90;;;;;;10383480;28;20048;-78
2022/10/31 04:29:42;;;;;;;91.50;44.20;;;9.00;99.90;;;;;;10393045;28;20025;-79
2022/10/31 04:34:42;;;;;;;77.83;40.93;;;8.90;99.90;;;;;;10382122;28;20043;-78
2022/10/31 04:39:43;;;;;;;78.33;40.90;;;8.80;99.90;;;;;;10391165;28;20040;-79
2022/10/31 04:44:43;;;;;;;74.40;38.90;;;8.70;99.90;;;;;;10391559;28;20041;-80
2022/10/31 04:49:44;;;;;;;531.73;88.23;;;8.50;99.90;;;;;;10383601;28;20389;-79
2022/10/31 04:54:44;;;;;;;371.67;72.93;;;8.40;99.90;;;;;;10384161;28;20026;-78
2022/10/31 04:59:45;;;;;;;192.37;47.27;;;8.30;99.90;;;;;;10384240;28;20481;-78
2022/10/31 05:04:45;;;;;;;304.60;64.47;;;8.30;99.90;;;;;;10382803;28;20048;-80
2022/10/31 05:09:46;;;;;;;457.13;88.77;;;8.30;99.90;;;;;;10388327;28;20481;-79
2022/10/31 05:14:46;;;;;;;240.57;69.90;;;8.30;99.90;;;;;;10386872;28;20124;-78
2022/10/31 05:19:47;;;;;;;206.30;62.37;;;8.40;99.90;;;;;;10381028;28;20044;-79
2022/10/31 05:24:47;;;;;;;198.70;61.70;;;8.40;99.90;;;;;;10379051;28;20037;-81
2022/10/31 05:29:48;;;;;;;237.40;64.90;;;8.50;99.90;;;;;;10382621;28;20029;-79
2022/10/31 05:34:48;;;;;;;235.60;65.70;;;8.50;99.90;;;;;;10369003;28;20025;-78
2022/10/31 05:39:49;;;;;;;117.07;51.27;;;8.50;99.90;;;;;;10386178;28;20037;-79
2022/10/31 05:44:49;;;;;;;223.70;64.03;;;8.50;99.90;;;;;;10371308;28;20502;-78
2022/10/31 05:49:50;;;;;;;89.53;43.03;;;8.60;99.90;;;;;;10377320;28;20030;-78
2022/10/31 05:54:50;;;;;;;144.60;49.77;;;8.60;99.90;;;;;;10388898;28;20029;-80
2022/10/31 05:59:54;;;;;;;79.17;41.43;;;8.60;99.90;;;;;;10375292;28;20022;-81
2022/10/31 06:04:54;;;;;;;75.67;38.60;;;8.60;99.90;;;;;;10390704;28;20041;-81
2022/10/31 06:09:55;;;;;;;112.73;45.00;;;8.60;99.90;;;;;;10383086;28;20056;-78
2022/10/31 06:14:56;;;;;;;87.80;41.13;;;8.60;99.90;;;;;;10389651;28;20033;-78
2022/10/31 06:19:56;;;;;;;87.17;40.13;;;8.60;99.90;;;;;;10405145;28;20041;-78
2022/10/31 06:24:57;;;;;;;125.50;52.67;;;8.70;99.90;;;;;;10399563;28;20721;-78
2022/10/31 06:29:58;;;;;;;203.27;79.53;;;8.80;99.90;;;;;;10395174;28;20091;-79
2022/10/31 06:34:59;;;;;;;137.93;69.47;;;8.80;99.90;;;;;;10394500;28;20121;-79
2022/10/31 06:39:59;;;;;;;128.70;65.37;;;8.90;99.90;;;;;;10393801;28;20022;-79
2022/10/31 06:45:00;;;;;;;207.30;87.27;;;9.10;99.90;;;;;;10384575;28;20436;-81
2022/10/31 06:50:00;;;;;;;218.73;90.57;;;9.10;99.90;;;;;;10389543;28;20071;-79
2022/10/31 06:55:01;;;;;;;89.93;57.10;;;9.20;99.90;;;;;;10385367;28;20030;-79
2022/10/31 07:00:01;;;;;;;102.80;57.35;;;9.40;99.90;;;;;;10398630;28;20052;-80
2022/10/31 07:05:02;;;;;;;85.30;48.80;;;9.50;99.90;;;;;;10387942;28;20359;-78
2022/10/31 07:10:03;;;;;;;87.43;50.23;;;9.70;99.90;;;;;;10389588;28;20049;-80
2022/10/31 07:15:04;;;;;;;64.82;38.22;;;9.90;99.90;;;;;;10391509;28;20036;-78
2022/10/31 07:20:05;;;;;;;81.68;53.15;;;10.20;99.90;;;;;;10385309;28;20056;-78
2022/10/31 07:25:06;;;;;;;87.75;64.45;;;10.40;99.90;;;;;;10391566;28;20481;-79
2022/10/31 07:30:09;;;;;;;70.32;40.88;;;10.70;99.90;;;;;;10396222;28;20095;-77
2022/10/31 07:35:12;;;;;;;73.45;42.58;;;11.00;99.90;;;;;;10394548;28;20030;-79
2022/10/31 07:40:12;;;;;;;71.57;38.05;;;11.30;99.90;;;;;;10374260;28;20432;-78
2022/10/31 07:45:15;;;;;;;69.25;38.65;;;11.70;99.90;;;;;;10383736;28;20037;-81
2022/10/31 07:50:19;;;;;;;58.58;34.78;;;12.00;99.90;;;;;;10400028;28;20057;-80
2022/10/31 07:55:19;;;;;;;57.97;32.10;;;12.30;99.90;;;;;;10383533;28;20068;-80
2022/10/31 08:00:20;;;;;;;52.33;31.17;;;12.60;99.90;;;;;;10398253;28;20116;-78
2022/10/31 08:05:20;;;;;;;49.50;29.42;;;12.80;99.90;;;;;;10385383;28;20061;-78
2022/10/31 08:10:22;;;;;;;45.72;27.02;;;13.00;99.90;;;;;;10390351;28;20469;-81
2022/10/31 08:15:22;;;;;;;45.88;27.05;;;13.20;99.90;;;;;;10387162;28;20053;-78
2022/10/31 08:20:23;;;;;;;47.53;26.50;;;13.50;99.90;;;;;;10392114;28;20115;-80
2022/10/31 08:25:24;;;;;;;51.10;28.13;;;13.70;99.90;;;;;;10393569;28;20080;-79
2022/10/31 08:30:28;;;;;;;45.33;26.42;;;14.00;99.90;;;;;;10398986;28;20071;-79
2022/10/31 08:35:28;;;;;;;41.50;23.48;;;14.30;99.90;;;;;;10397464;28;20029;-79
2022/10/31 08:40:31;;;;;;;45.60;23.95;;;14.50;99.90;;;;;;10401458;28;20025;-78
2022/10/31 08:45:33;;;;;;;36.38;19.80;;;14.80;99.90;;;;;;10387135;28;20128;-80
2022/10/31 08:50:35;;;;;;;36.25;20.92;;;15.10;99.90;;;;;;10391811;28;20041;-80
2022/10/31 08:55:37;;;;;;;38.25;22.17;;;15.40;99.90;;;;;;10377255;28;20541;-78
2022/10/31 09:00:38;;;;;;;33.25;19.35;;;15.60;99.90;;;;;;10385755;28;20030;-76
2022/10/31 09:05:39;;;;;;;39.30;22.95;;;15.80;99.90;;;;;;10381371;28;20042;-80
2022/10/31 09:10:40;;;;;;;34.85;22.27;;;16.00;99.90;;;;;;10385259;28;20029;-77
2022/10/31 09:15:43;;;;;;;37.72;21.35;;;16.20;99.90;;;;;;10385511;28;20400;-77
2022/10/31 09:20:45;;;;;;;43.45;23.02;;;16.40;99.90;;;;;;10394741;28;20041;-77
2022/10/31 09:25:47;;;;;;;39.88;22.70;;;16.70;99.90;;;;;;10380944;28;20048;-76
2022/10/31 09:30:51;;;;;;;37.17;19.77;;;16.90;99.90;;;;;;10389323;28;20385;-77
2022/10/31 09:35:52;;;;;;;38.45;19.42;;;17.10;99.90;;;;;;10381614;28;20064;-77
2022/10/31 09:41:26;;;;;;;38.08;20.90;;;17.30;99.90;;;;;;10388359;28;20026;-80
2022/10/31 09:47:08;;;;;;;34.75;20.15;;;17.50;99.90;;;;;;10387649;28;20046;-76
2022/10/31 09:52:33;;;;;;;31.63;17.52;;;17.80;99.90;;;;;;10400920;28;20073;-79
2022/10/31 09:57:36;;;;;;;30.70;16.83;;;18.00;99.90;;;;;;10398773;28;20045;-77
2022/10/31 10:02:47;;;;;;;34.50;18.02;;;18.20;99.90;;;;;;10393631;28;20109;-77
2022/10/31 10:08:05;;;;;;;29.10;15.95;;;18.50;99.90;;;;;;10383721;28;20520;-77
2022/10/31 10:13:21;;;;;;;29.15;13.55;;;18.70;99.90;;;;;;10381779;28;20029;-77
2022/10/31 10:18:35;;;;;;;;;;;18.90;99.90;;;;;;10391718;28;20117;-77
2022/10/31 10:23:39;;;;;;;25.15;11.48;;;19.10;99.90;;;;;;10387991;28;19944;-77
2022/10/31 10:28:44;;;;;;;18.38;8.55;;;19.20;99.90;;;;;;10388004;28;20401;-77
2022/10/31 10:33:57;;;;;;;18.73;9.65;;;19.40;99.90;;;;;;10390135;28;20497;-78
2022/10/31 10:39:11;;;;;;;17.73;8.63;;;19.50;99.90;;;;;;10396267;28;20778;-78
2022/10/31 10:44:12;;;;;;;21.42;8.73;;;19.60;99.90;;;;;;10396995;28;20030;-77
2022/10/31 10:49:28;;;;;;;22.48;8.35;;;19.80;99.90;;;;;;10395125;28;20405;-77
2022/10/31 10:54:56;;;;;;;17.20;8.35;;;20.00;98.30;;;;;;10405388;28;20116;-77
2022/10/31 11:00:01;;;;;;;19.52;9.77;;;20.10;98.30;;;;;;10397313;28;20672;-76
2022/10/31 11:05:03;;;;;;;17.48;8.48;;;20.20;98.30;;;;;;10397180;28;20489;-77
2022/10/31 11:10:15;;;;;;;15.88;7.32;;;20.40;98.00;;;;;;10388781;28;20057;-77
2022/10/31 11:15:23;;;;;;;14.10;6.15;;;20.50;97.00;;;;;;10385225;28;20026;-79
2022/10/31 11:20:30;;;;;;;18.52;8.05;;;20.70;96.40;;;;;;10396028;28;20038;-77
2022/10/31 11:25:31;;;;;;;20.05;7.60;;;20.80;96.10;;;;;;10386309;28;20113;-79
2022/10/31 11:30:43;;;;;;;20.60;8.65;;;20.80;95.40;;;;;;10397818;28;20041;-82
2022/10/31 11:35:44;;;;;;;16.98;7.90;;;20.90;95.10;;;;;;10383532;28;20034;-80
2022/10/31 11:41:06;;;;;;;18.90;8.10;;;21.00;94.40;;;;;;10384596;28;20044;-81
2022/10/31 11:46:11;;;;;;;15.63;7.10;;;21.10;92.60;;;;;;10389290;28;20045;-77
2022/10/31 11:51:12;;;;;;;17.17;6.70;;;21.00;91.40;;;;;;10388385;28;20034;-78
2022/10/31 11:56:15;;;;;;;14.35;7.00;;;21.10;91.90;;;;;;10389638;28;20033;-82
2022/10/31 12:01:26;;;;;;;19.73;8.75;;;21.10;91.60;;;;;;10385466;28;20425;-80
2022/10/31 12:06:36;;;;;;;17.13;8.00;;;21.20;91.90;;;;;;10386930;28;20060;-78
2022/10/31 12:11:58;;;;;;;21.55;7.70;;;21.20;91.30;;;;;;10385939;28;20032;-80
2022/10/31 12:17:19;;;;;;;22.30;9.48;;;21.30;90.60;;;;;;10376755;28;20429;-77
2022/10/31 12:22:26;;;;;;;12.43;6.30;;;21.30;90.10;;;;;;10396273;28;20017;-82
2022/10/31 12:28:07;;;;;;;17.55;7.07;;;21.30;89.10;;;;;;10389422;28;20090;-78
2022/10/31 12:33:24;;;;;;;20.80;7.28;;;21.40;88.40;;;;;;10380168;28;20037;-78
2022/10/31 12:38:35;;;;;;;18.77;7.50;;;21.40;87.90;;;;;;10390013;28;20109;-79
2022/10/31 12:43:46;;;;;;;15.63;6.80;;;21.50;89.70;;;;;;10388388;28;20037;-80
2022/10/31 12:49:31;;;;;;;16.83;7.35;;;21.50;88.30;;;;;;10387647;28;20515;-78
2022/10/31 12:54:58;;;;;;;12.80;6.85;;;21.50;88.40;;;;;;10370440;28;20037;-79
2022/10/31 13:00:22;;;;;;;19.98;9.93;;;21.50;87.50;;;;;;10383666;28;20053;-79
2022/10/31 13:05:30;;;;;;;30.13;13.77;;;21.50;87.30;;;;;;10379950;28;20038;-81
2022/10/31 13:10:46;;;;;;;15.90;8.90;;;21.50;89.00;;;;;;10378690;28;20036;-78
2022/10/31 13:16:03;;;;;;;16.20;8.00;;;21.50;88.40;;;;;;10381348;28;20025;-80
2022/10/31 13:21:12;;;;;;;22.38;11.02;;;21.40;87.90;;;;;;10384422;28;20069;-81
2022/10/31 13:26:33;;;;;;;26.40;12.00;;;21.40;87.70;;;;;;10384160;28;20046;-82
2022/10/31 13:31:33;;;;;;;26.17;11.98;;;21.30;88.20;;;;;;10404102;28;20111;-78
2022/10/31 13:36:45;;;;;;;17.85;8.43;;;21.20;88.20;;;;;;10386561;28;20688;-79
2022/10/31 13:41:48;;;;;;;15.27;7.60;;;21.10;87.50;;;;;;10377504;28;20065;-78
2022/10/31 13:46:48;;;;;;;28.50;12.02;;;21.00;87.90;;;;;;10403287;28;20042;-79
2022/10/31 13:51:52;;;;;;;20.65;9.90;;;20.90;87.80;;;;;;10389127;28;20381;-79
2022/10/31 13:56:53;;;;;;;20.15;8.98;;;20.90;88.50;;;;;;10390886;28;20033;-79
2022/10/31 14:02:14;;;;;;;28.27;10.95;;;20.80;88.40;;;;;;10395062;28;20052;-78
2022/10/31 14:07:18;;;;;;;17.20;8.05;;;20.60;89.40;;;;;;10396941;28;20060;-77
2022/10/31 14:12:36;;;;;;;16.92;9.13;;;20.50;89.20;;;;;;10397241;28;20580;-78
2022/10/31 14:17:51;;;;;;;14.80;6.72;;;20.40;90.10;;;;;;10383675;28;20128;-78
2022/10/31 14:22:51;;;;;;;12.00;6.50;;;20.30;90.10;;;;;;10389239;28;20056;-80
2022/10/31 14:27:52;;;;;;;13.68;5.90;;;20.10;90.20;;;;;;10392357;28;20103;-80
2022/10/31 14:32:58;;;;;;;16.60;7.53;;;19.90;90.40;;;;;;10398006;28;20037;-78
2022/10/31 14:38:26;;;;;;;13.75;7.10;;;19.70;90.80;;;;;;10403963;28;20057;-78
2022/10/31 14:43:35;;;;;;;14.88;6.40;;;19.50;91.00;;;;;;10397051;28;20061;-79
2022/10/31 14:48:47;;;;;;;12.10;6.07;;;19.30;91.60;;;;;;10393941;28;20084;-78
2022/10/31 14:53:54;;;;;;;13.23;6.43;;;18.90;92.60;;;;;;10392245;28;20033;-78
2022/10/31 14:58:58;;;;;;;14.65;6.03;;;18.50;93.00;;;;;;10400010;28;20086;-82
2022/10/31 15:04:09;;;;;;;13.10;7.13;;;18.00;93.70;;;;;;10375634;28;20121;-81
2022/10/31 15:09:24;;;;;;;14.25;6.55;;;17.70;94.30;;;;;;10389014;28;20057;-80
2022/10/31 15:14:30;;;;;;;16.13;6.83;;;17.30;94.90;;;;;;10394736;28;20037;-84
2022/10/31 15:19:33;;;;;;;15.23;6.55;;;17.00;95.50;;;;;;10399062;28;20033;-81
2022/10/31 15:24:38;;;;;;;14.57;5.80;;;16.80;96.20;;;;;;10387017;28;20041;-82
2022/10/31 15:29:51;;;;;;;18.17;7.13;;;16.60;96.50;;;;;;10382033;28;20034;-80
2022/10/31 15:34:53;;;;;;;14.70;7.03;;;16.40;97.10;;;;;;10385799;28;20356;-80
2022/10/31 15:39:54;;;;;;;13.07;6.88;;;16.00;98.20;;;;;;10387257;28;20029;-78
2022/10/31 15:45:09;;;;;;;19.15;8.73;;;15.80;99.20;;;;;;10394629;28;20042;-79
2022/10/31 15:50:31;;;;;;;22.88;10.90;;;15.60;99.90;;;;;;10395801;28;20029;-77
2022/10/31 15:55:38;;;;;;;19.65;11.48;;;15.40;99.90;;;;;;10394817;28;20033;-78
2022/10/31 16:00:38;;;;;;;18.38;10.45;;;15.20;99.90;;;;;;10394588;28;20033;-83
2022/10/31 16:05:45;;;;;;;16.42;10.40;;;15.10;99.90;;;;;;10393973;28;20485;-80
2022/10/31 16:10:45;;;;;;;21.35;10.95;;;15.00;99.90;;;;;;10401068;28;20400;-78
2022/10/31 16:15:56;;;;;;;23.27;10.32;;;14.90;99.90;;;;;;10395321;28;20026;-82
2022/10/31 16:20:57;;;;;;;23.00;11.73;;;14.90;99.90;;;;;;10385562;28;20026;-79
2022/10/31 16:25:58;;;;;;;22.92;12.00;;;14.70;99.90;;;;;;10389500;28;20034;-78
2022/10/31 16:30:58;;;;;;;29.05;18.80;;;14.50;99.90;;;;;;10378867;28;20374;-78
2022/10/31 16:36:02;;;;;;;24.90;14.85;;;14.50;99.90;;;;;;10396822;28;20033;-78
2022/10/31 16:41:02;;;;;;;22.95;10.73;;;14.30;99.90;;;;;;10400534;28;20029;-84
2022/10/31 16:46:03;;;;;;;20.17;11.23;;;14.30;99.90;;;;;;10393611;28;20049;-78
2022/10/31 16:51:04;;;;;;;18.67;9.75;;;14.30;99.90;;;;;;10392419;28;20037;-79
2022/10/31 16:56:05;;;;;;;23.80;11.23;;;14.00;99.90;;;;;;10383962;28;20029;-78
2022/10/31 17:01:06;;;;;;;19.00;9.95;;;13.90;99.90;;;;;;10393625;28;20036;-82
2022/10/31 17:06:11;;;;;;;21.98;10.00;;;13.90;99.90;;;;;;10386983;28;20065;-83
2022/10/31 17:11:21;;;;;;;22.40;11.38;;;13.80;99.90;;;;;;10394568;28;20051;-82
2022/10/31 17:16:21;;;;;;;32.05;15.63;;;13.70;99.90;;;;;;10396084;28;20036;-79
2022/10/31 17:21:23;;;;;;;38.63;19.80;;;13.60;99.90;;;;;;10390113;28;20022;-81
2022/10/31 17:26:24;;;;;;;47.97;25.70;;;13.50;99.90;;;;;;10378546;28;20048;-79
2022/10/31 17:31:31;;;;;;;64.65;36.35;;;13.20;99.90;;;;;;10370194;28;20034;-78
2022/10/31 17:36:33;;;;;;;102.25;57.67;;;13.20;99.90;;;;;;10383258;28;20029;-78
2022/10/31 17:41:34;;;;;;;99.63;59.50;;;13.10;99.90;;;;;;10391969;28;20030;-78
2022/10/31 17:46:34;;;;;;;128.57;77.88;;;13.00;99.90;;;;;;10393073;28;20534;-78
2022/10/31 17:51:35;;;;;;;146.65;94.72;;;12.90;99.90;;;;;;10386001;28;20419;-77
2022/10/31 17:56:35;;;;;;;133.48;87.22;;;12.90;99.90;;;;;;10393207;28;20032;-78
2022/10/31 18:01:37;;;;;;;105.70;64.43;;;12.90;99.90;;;;;;10392914;28;20034;-81
2022/10/31 18:06:38;;;;;;;116.28;71.05;;;12.80;99.90;;;;;;10399446;28;20053;-78
2022/10/31 18:11:38;;;;;;;95.53;58.72;;;12.80;99.90;;;;;;10386542;28;20048;-78
2022/10/31 18:16:39;;;;;;;71.05;40.53;;;12.80;99.90;;;;;;10400447;28;20033;-78
2022/10/31 18:21:39;;;;;;;66.53;35.90;;;12.80;99.90;;;;;;10399706;28;20035;-78
2022/10/31 18:26:40;;;;;;;109.95;65.90;;;12.80;99.90;;;;;;10390097;28;20139;-79
2022/10/31 18:31:40;;;;;;;66.38;40.72;;;12.80;99.90;;;;;;10389796;28;20092;-81
2022/10/31 18:36:41;;;;;;;75.80;46.00;;;12.70;99.90;;;;;;10397364;28;20044;-78
2022/10/31 18:41:42;;;;;;;81.80;47.45;;;12.50;99.90;;;;;;10398965;28;20025;-80
2022/10/31 18:46:42;;;;;;;71.30;41.50;;;12.50;99.90;;;;;;10396587;28;20136;-78
2022/10/31 18:51:43;;;;;;;61.28;38.22;;;12.40;99.90;;;;;;10383018;28;20835;-78
2022/10/31 18:56:43;;;;;;;68.13;37.97;;;12.40;99.90;;;;;;10399032;28;20117;-79
2022/10/31 19:01:45;;;;;;;65.88;39.50;;;12.40;99.90;;;;;;10386387;28;20041;-78
2022/10/31 19:06:45;;;;;;;65.25;34.78;;;12.30;99.90;;;;;;10383262;28;20041;-78
2022/10/31 19:11:46;;;;;;;56.63;33.58;;;12.30;99.90;;;;;;10398424;28;20481;-78
2022/10/31 19:16:47;;;;;;;63.10;36.85;;;12.20;99.90;;;;;;10396103;28;20044;-78
2022/10/31 19:21:47;;;;;;;52.47;30.95;;;12.10;99.90;;;;;;10389163;28;20113;-80
2022/10/31 19:26:48;;;;;;;80.95;43.55;;;12.00;99.90;;;;;;10395732;28;20096;-81
2022/10/31 19:31:48;;;;;;;77.20;41.97;;;11.90;99.90;;;;;;10394150;28;20034;-78
2022/10/31 19:36:49;;;;;;;79.03;48.42;;;11.80;99.90;;;;;;10398704;28;20044;-81
2022/10/31 19:41:50;;;;;;;88.35;53.30;;;11.70;99.90;;;;;;10388275;28;20084;-80
2022/10/31 19:46:50;;;;;;;103.53;61.80;;;11.60;99.90;;;;;;10400635;28;20119;-81
2022/10/31 19:51:51;;;;;;;116.32;69.80;;;11.50;99.90;;;;;;10402810;28;20033;-78
2022/10/31 19:56:52;;;;;;;138.15;80.63;;;11.40;99.90;;;;;;10392239;28;20025;-77
2022/10/31 20:01:52;;;;;;;122.03;74.72;;;11.30;99.90;;;;;;10385769;28;20033;-78
2022/10/31 20:06:53;;;;;;;115.03;68.20;;;11.30;99.90;;;;;;10387519;28;20212;-79
2022/10/31 20:11:53;;;;;;;137.57;78.20;;;11.20;99.90;;;;;;10387506;28;20034;-79
2022/10/31 20:16:54;;;;;;;153.27;88.93;;;11.10;99.90;;;;;;10380537;28;20037;-81
2022/10/31 20:21:54;;;;;;;159.80;89.72;;;11.00;99.90;;;;;;10392955;28;20030;-79
2022/10/31 20:26:55;;;;;;;162.68;100.72;;;10.90;99.90;;;;;;10392852;28;20049;-79
2022/10/31 20:31:56;;;;;;;178.18;103.65;;;10.90;99.90;;;;;;10392109;28;20030;-78
2022/10/31 20:36:58;;;;;;;169.65;98.05;;;10.90;99.90;;;;;;10401024;28;20436;-81
2022/10/31 20:42:00;;;;;;;172.57;97.15;;;10.90;99.90;;;;;;10373730;28;20033;-79
2022/10/31 20:47:01;;;;;;;145.18;80.93;;;10.70;99.90;;;;;;10395644;28;20106;-81
2022/10/31 20:52:02;;;;;;;179.50;103.95;;;10.70;99.90;;;;;;10385838;28;20022;-81
2022/10/31 20:57:03;;;;;;;122.93;70.15;;;10.70;99.90;;;;;;10389905;28;20112;-78
2022/10/31 21:02:03;;;;;;;171.70;103.60;;;10.70;99.90;;;;;;10385585;28;20036;-78
2022/10/31 21:07:04;;;;;;;170.25;103.80;;;10.60;99.90;;;;;;10387586;28;20049;-80
2022/10/31 21:12:05;;;;;;;192.65;108.60;;;10.60;99.90;;;;;;10396973;28;20025;-78
2022/10/31 21:17:07;;;;;;;183.38;107.53;;;10.60;99.90;;;;;;10390075;28;20040;-80
2022/10/31 21:22:07;;;;;;;155.15;94.38;;;10.50;99.90;;;;;;10395620;28;20030;-79
2022/10/31 21:27:09;;;;;;;122.97;68.13;;;10.40;99.90;;;;;;10385660;28;20065;-78
2022/10/31 21:32:09;;;;;;;94.75;52.75;;;10.30;99.90;;;;;;10404550;28;20144;-78
2022/10/31 21:37:10;;;;;;;91.20;49.83;;;10.40;99.90;;;;;;10407679;28;20087;-78
2022/10/31 21:42:11;;;;;;;87.82;51.20;;;10.40;99.90;;;;;;10386959;28;20041;-78
2022/10/31 21:47:11;;;;;;;100.07;54.03;;;10.40;99.90;;;;;;10399894;23;20049;-80
2022/10/31 21:52:12;;;;;;;128.70;66.78;;;10.30;99.90;;;;;;10367983;28;20025;-80
2022/10/31 21:57:13;;;;;;;104.20;54.83;;;10.20;99.90;;;;;;10367408;28;20046;-80
2022/10/31 22:02:14;;;;;;;83.72;45.33;;;10.30;99.90;;;;;;10365581;28;20042;-78
2022/10/31 22:07:15;;;;;;;99.75;52.05;;;10.20;99.90;;;;;;10368215;28;20370;-79
2022/10/31 22:12:15;;;;;;;124.32;69.47;;;10.20;99.90;;;;;;10367433;28;20034;-77
2022/10/31 22:17:16;;;;;;;127.25;71.38;;;10.20;99.90;;;;;;10368017;28;20117;-78
2022/10/31 22:22:16;;;;;;;125.10;66.93;;;10.20;99.90;;;;;;10367669;28;20395;-79
2022/10/31 22:27:17;;;;;;;107.67;59.33;;;10.10;99.90;;;;;;10364930;28;20567;-80
2022/10/31 22:32:18;;;;;;;85.23;48.13;;;10.00;99.90;;;;;;10367306;28;20029;-79
2022/10/31 22:37:18;;;;;;;99.43;49.43;;;10.10;99.90;;;;;;10366815;28;20112;-78
2022/10/31 22:42:19;;;;;;;89.53;46.75;;;10.10;99.90;;;;;;10366579;28;20065;-77
2022/10/31 22:47:19;;;;;;;90.00;46.13;;;10.20;99.90;;;;;;10396971;28;20132;-78
2022/10/31 22:52:20;;;;;;;64.22;37.08;;;10.30;99.90;;;;;;10406908;28;20079;-77
2022/10/31 22:57:20;;;;;;;88.57;43.53;;;10.30;99.90;;;;;;10406256;28;20037;-78
2022/10/31 23:02:21;;;;;;;72.90;40.60;;;10.20;99.90;;;;;;10405710;28;20030;-77
2022/10/31 23:07:21;;;;;;;60.72;36.45;;;10.10;99.90;;;;;;10407734;28;20487;-79
2022/10/31 23:17:41;;;;;;;105.13;47.70;;;9.90;99.90;;;;;;10405626;28;20029;-77
2022/10/31 23:22:42;;;;;;;112.70;46.83;;;9.70;99.90;;;;;;10406061;28;20021;-79
2022/10/31 23:27:42;;;;;;;67.37;38.27;;;9.70;99.90;;;;;;10400143;28;20040;-78
2022/10/31 23:32:43;;;;;;;94.60;46.00;;;9.70;99.90;;;;;;10401570;28;20029;-77
2022/10/31 23:37:43;;;;;;;121.60;57.43;;;9.70;99.90;;;;;;10408073;28;20034;-77
2022/10/31 23:42:44;;;;;;;125.80;60.77;;;9.70;99.90;;;;;;10384126;28;20041;-78
2022/10/31 23:47:44;;;;;;;95.37;48.27;;;9.60;99.90;;;;;;10415678;22;20087;-79
2022/10/31 23:52:45;;;;;;;108.30;53.53;;;9.70;99.90;;;;;;10444004;28;20025;-77
2022/10/31 23:57:45;;;;;;;96.60;49.63;;;9.80;99.90;;;;;;10449786;22;20050;-77
